Sioux Gateway

Airport
ICAO code: 
KSUX
Summary
ICAO Region: 
NAM
Territory: 
Location: 
Sioux City, Iowa,
Coordinates: 
Aerial View: 
42° 24' 6.343" N, 96° 23' 3.124" W
Airport CFIT: 
Altimeter Temperature Error Correction
Metar
Observation
KSUX 021452Z 31006KT 10SM CLR 08/02 A2999 RMK AO2 PRESRR SLP159 T00830022 53029
Station
Sioux City, Sioux Gateway Airport
Date/Time
2021-12-02 14:52:00
Wind direction
310°
Wind speed
06 kts
Lowest cloud amount
n/a
Temperature
8.3°C
Dew point
2.2°C
Humidity
65%
Weather condition
n/a

Description

Sioux Gateway Airport, also known as Colonel Bud Day Field, is a joint civil-military public airport located 10 km south of Sioux City and just west of Sergeant Bluff, in Woodbury County, Iowa, United States.

Climatology

Humid continental climate (Köppen climate classification Dfa) - characterized by four seasons: cold, windy, snowy winters, mild springs, hot, humid summers, and crisp and relatively short autumns. Precipitation reaches its lowest in January and February and peaks in summer and latter half of spring.

Runways

Designator Length Width Surface Rops
17/35 2012 46 ASP Yes/Yes
13/31 2744 46 CON Yes/Yes
Airport map: 
Aerial View: 

Accidents and Serious Incidents at or in the vicinity of KSUX

SKYbrary Partners:

Safety knowledge contributed by: